Time;durP1;ratioP1;P1;durP2;ratioP2;P2;SDS_P1;SDS_P2;PMS_P1;PMS_P2;Temp;Humidity;BMP_temperature;BMP_pressure;BME280_temperature;BME280_humidity;BME280_pressure;Samples;Min_cycle;Max_cycle;Signal;HPM_P1;HPM_P2
2022/04/05 00:01:11;;;;;;;5.88;1.55;;;7.70;99.90;;;;;;5031164;28;20124;-52
2022/04/05 00:03:37;;;;;;;5.60;1.52;;;7.70;99.90;;;;;;5030650;28;20139;-53
2022/04/05 00:06:02;;;;;;;5.45;1.30;;;7.60;99.90;;;;;;5014111;28;20084;-52
2022/04/05 00:08:28;;;;;;;3.40;1.48;;;7.60;99.90;;;;;;5036127;28;20119;-52
2022/04/05 00:10:53;;;;;;;6.65;1.77;;;7.60;99.90;;;;;;5031078;28;20034;-52
2022/04/05 00:13:19;;;;;;;3.45;1.55;;;7.60;99.90;;;;;;5031176;28;20037;-52
2022/04/05 00:15:45;;;;;;;4.13;1.60;;;7.60;99.90;;;;;;5031104;28;20037;-55
2022/04/05 00:18:10;;;;;;;3.50;1.55;;;7.60;99.90;;;;;;5030383;28;20129;-53
2022/04/05 00:20:36;;;;;;;4.10;1.50;;;7.50;99.90;;;;;;5031006;28;20116;-52
2022/04/05 00:23:02;;;;;;;5.93;2.35;;;7.50;99.90;;;;;;5031076;28;20037;-52
2022/04/05 00:25:28;;;;;;;5.72;1.73;;;7.50;99.90;;;;;;5026171;28;20033;-52
2022/04/05 00:27:53;;;;;;;5.65;1.98;;;7.50;99.90;;;;;;5030888;28;20045;-52
2022/04/05 00:30:19;;;;;;;9.25;1.80;;;7.50;99.90;;;;;;5030897;28;20417;-55
2022/04/05 00:32:45;;;;;;;6.10;1.67;;;7.50;99.90;;;;;;5030552;28;20505;-53
2022/04/05 00:35:11;;;;;;;4.68;1.77;;;7.50;99.90;;;;;;5030794;28;20042;-52
2022/04/05 00:37:37;;;;;;;6.53;1.52;;;7.50;99.90;;;;;;5030343;28;20049;-51
2022/04/05 00:40:05;;;;;;;8.10;1.80;;;7.50;99.90;;;;;;5031189;28;20049;-52
2022/04/05 00:42:31;;;;;;;4.18;1.70;;;7.50;99.90;;;;;;5023064;28;20362;-52
2022/04/05 00:44:58;;;;;;;4.40;2.15;;;7.50;99.90;;;;;;5029493;28;20040;-53
2022/04/05 00:47:24;;;;;;;5.55;2.30;;;7.50;99.90;;;;;;5030092;28;20516;-54
2022/04/05 00:49:53;;;;;;;6.43;1.67;;;7.40;99.90;;;;;;5030788;28;20084;-52
2022/04/05 00:52:20;;;;;;;5.03;1.80;;;7.40;99.90;;;;;;5029516;28;20493;-53
2022/04/05 00:54:48;;;;;;;5.78;1.83;;;7.40;99.90;;;;;;5030771;28;20619;-52
2022/04/05 00:57:17;;;;;;;7.32;2.08;;;7.40;99.90;;;;;;5030643;28;20104;-53
2022/04/05 00:59:46;;;;;;;5.65;2.20;;;7.40;99.90;;;;;;5030545;28;20045;-53
2022/04/05 01:02:14;;;;;;;4.97;1.67;;;7.40;99.90;;;;;;5030598;28;20033;-52
2022/04/05 01:04:42;;;;;;;6.43;1.60;;;7.40;99.90;;;;;;5030390;28;20156;-53
2022/04/05 01:07:14;;;;;;;5.60;2.00;;;7.40;99.90;;;;;;5030446;28;20042;-52
2022/04/05 01:09:41;;;;;;;5.32;1.70;;;7.40;99.90;;;;;;5030671;28;20460;-53
2022/04/05 01:12:08;;;;;;;5.10;1.42;;;7.40;99.90;;;;;;5030507;28;20029;-52
2022/04/05 01:14:34;;;;;;;5.63;1.60;;;7.40;99.90;;;;;;5030388;28;20033;-51
2022/04/05 01:17:00;;;;;;;3.90;1.40;;;7.40;99.90;;;;;;5030489;28;20048;-54
2022/04/05 01:19:27;;;;;;;3.83;1.90;;;7.40;99.90;;;;;;5033617;28;20030;-52
2022/04/05 01:21:52;;;;;;;4.18;1.40;;;7.40;99.90;;;;;;5034067;28;20080;-52
2022/04/05 01:24:18;;;;;;;6.47;1.05;;;7.40;99.90;;;;;;5033765;28;20080;-52
2022/04/05 01:26:47;;;;;;;6.15;1.27;;;7.40;99.90;;;;;;5033531;28;20435;-52
2022/04/05 01:29:14;;;;;;;4.97;1.33;;;7.40;99.90;;;;;;5033615;28;20493;-54
2022/04/05 01:31:44;;;;;;;5.10;1.30;;;7.30;99.90;;;;;;5033979;28;20041;-52
2022/04/05 01:34:11;;;;;;;3.75;1.38;;;7.30;99.90;;;;;;5033372;28;20033;-52
2022/04/05 01:36:51;;;;;;;5.22;1.30;;;7.30;99.90;;;;;;5033665;28;20057;-50
2022/04/05 01:39:20;;;;;;;3.47;1.00;;;7.30;99.90;;;;;;5033365;28;20516;-51
2022/04/05 01:41:49;;;;;;;5.15;1.27;;;7.30;99.90;;;;;;5033855;28;20493;-52
2022/04/05 01:44:16;;;;;;;1.38;1.02;;;7.30;99.90;;;;;;5033655;28;20069;-53
2022/04/05 01:46:42;;;;;;;4.90;1.10;;;7.30;99.90;;;;;;5033342;28;20498;-52
2022/04/05 01:49:09;;;;;;;6.68;1.63;;;7.30;99.90;;;;;;5033364;28;20052;-52
2022/04/05 01:51:36;;;;;;;4.72;1.15;;;7.30;99.90;;;;;;5033623;28;20448;-52
2022/04/05 01:54:05;;;;;;;5.85;1.17;;;7.30;99.90;;;;;;5036678;28;20068;-52
2022/04/05 01:56:32;;;;;;;5.45;1.50;;;7.30;99.90;;;;;;5024020;28;20099;-54
2022/04/05 01:58:58;;;;;;;5.60;1.42;;;7.20;99.90;;;;;;5033419;28;20034;-52
2022/04/05 02:01:24;;;;;;;4.10;1.27;;;7.20;99.90;;;;;;5033228;28;20671;-52
2022/04/05 02:03:50;;;;;;;5.05;1.35;;;7.20;99.90;;;;;;5032997;28;20072;-50
2022/04/05 02:06:15;;;;;;;3.85;1.45;;;7.20;99.90;;;;;;5032638;28;20069;-55
2022/04/05 02:08:41;;;;;;;6.18;1.73;;;7.20;99.90;;;;;;5033111;28;20073;-52
2022/04/05 02:11:06;;;;;;;5.22;1.67;;;7.20;99.90;;;;;;5033377;28;20041;-54
2022/04/05 02:13:33;;;;;;;6.55;2.25;;;7.20;99.90;;;;;;5032850;28;20045;-55
2022/04/05 02:16:03;;;;;;;7.03;1.75;;;7.20;99.90;;;;;;5032922;28;20508;-51
2022/04/05 02:18:29;;;;;;;7.70;1.80;;;7.20;99.90;;;;;;5025988;28;20042;-52
2022/04/05 02:20:56;;;;;;;5.65;1.80;;;7.20;99.90;;;;;;5032745;28;20033;-52
2022/04/05 02:23:21;;;;;;;5.20;1.77;;;7.20;99.90;;;;;;5032712;28;20045;-53
2022/04/05 02:25:47;;;;;;;3.80;1.80;;;7.20;99.90;;;;;;5032865;28;20429;-56
2022/04/05 02:28:12;;;;;;;8.27;2.20;;;7.20;99.90;;;;;;5032683;28;20037;-53
2022/04/05 02:30:39;;;;;;;5.82;1.70;;;7.20;99.90;;;;;;5031509;28;20049;-53
2022/04/05 02:33:05;;;;;;;4.97;1.70;;;7.20;99.90;;;;;;5032561;28;20144;-53
2022/04/05 02:35:31;;;;;;;7.95;2.00;;;7.20;99.90;;;;;;5032506;28;20180;-54
2022/04/05 02:38:01;;;;;;;7.60;1.80;;;7.20;99.90;;;;;;5032246;28;20049;-54
2022/04/05 02:40:27;;;;;;;5.60;1.60;;;7.20;99.90;;;;;;5032879;28;20135;-53
2022/04/05 02:42:53;;;;;;;4.53;1.80;;;7.20;99.90;;;;;;5032101;28;20505;-53
2022/04/05 02:45:19;;;;;;;3.20;1.42;;;7.20;99.90;;;;;;5032664;28;20116;-53
2022/04/05 02:47:44;;;;;;;4.47;1.70;;;7.20;99.90;;;;;;5031948;28;20120;-53
2022/04/05 02:50:10;;;;;;;6.43;1.70;;;7.10;99.90;;;;;;5031297;28;20049;-53
2022/04/05 02:52:36;;;;;;;6.57;2.10;;;7.10;99.90;;;;;;5032546;28;20037;-52
2022/04/05 02:55:04;;;;;;;6.30;1.77;;;7.10;99.90;;;;;;5032148;28;20057;-53
2022/04/05 02:57:29;;;;;;;4.95;1.60;;;7.10;99.90;;;;;;5032047;28;20037;-53
2022/04/05 02:59:55;;;;;;;6.60;2.47;;;7.10;99.90;;;;;;5030920;28;20044;-53
2022/04/05 03:02:21;;;;;;;6.35;1.92;;;7.10;99.90;;;;;;5030431;28;20048;-53
2022/04/05 03:04:47;;;;;;;3.97;1.58;;;7.10;99.90;;;;;;5032101;28;20038;-53
2022/04/05 03:07:12;;;;;;;5.07;1.80;;;7.10;99.90;;;;;;5031835;28;20037;-53
2022/04/05 03:09:38;;;;;;;3.03;1.63;;;7.10;99.90;;;;;;5032397;28;20042;-53
2022/04/05 03:12:03;;;;;;;4.88;1.95;;;7.10;99.90;;;;;;5031950;28;20033;-53
2022/04/05 03:14:30;;;;;;;7.50;1.77;;;7.10;99.90;;;;;;5030518;28;20136;-53
2022/04/05 03:16:55;;;;;;;5.60;1.50;;;7.10;99.90;;;;;;5031443;28;20087;-55
2022/04/05 03:19:21;;;;;;;4.88;1.40;;;7.10;99.90;;;;;;5059938;22;20049;-51
2022/04/05 03:21:46;;;;;;;4.05;1.77;;;7.00;99.90;;;;;;5050738;28;20037;-50
2022/04/05 03:24:12;;;;;;;3.10;1.58;;;7.00;99.90;;;;;;5051908;28;20082;-52
2022/04/05 03:26:38;;;;;;;5.07;2.08;;;7.00;99.90;;;;;;5051138;28;20078;-51
2022/04/05 03:29:03;;;;;;;6.78;2.00;;;7.00;99.90;;;;;;5017291;28;20041;-51
2022/04/05 03:31:29;;;;;;;7.63;2.17;;;7.00;99.90;;;;;;5050458;28;20040;-53
2022/04/05 03:33:54;;;;;;;5.57;2.05;;;7.00;99.90;;;;;;5051394;28;20135;-52
2022/04/05 03:36:20;;;;;;;4.88;2.42;;;7.10;99.90;;;;;;5051451;28;20090;-51
2022/04/05 03:38:45;;;;;;;5.80;2.60;;;7.00;99.90;;;;;;5033400;28;21577;-51
2022/04/05 03:41:12;;;;;;;9.45;2.10;;;7.00;99.90;;;;;;5051115;28;20033;-53
2022/04/05 03:43:37;;;;;;;10.93;3.92;;;7.10;99.90;;;;;;5033649;28;20090;-53
2022/04/05 03:46:03;;;;;;;6.38;2.30;;;7.00;99.90;;;;;;5050982;28;20179;-49
2022/04/05 03:48:29;;;;;;;9.88;3.45;;;7.10;99.90;;;;;;5051073;28;20041;-53
2022/04/05 03:50:54;;;;;;;8.63;2.80;;;7.10;99.90;;;;;;5050110;28;20401;-52
2022/04/05 03:53:20;;;;;;;9.75;3.10;;;7.10;99.90;;;;;;5051261;28;20041;-53
2022/04/05 03:55:45;;;;;;;8.27;3.17;;;7.10;99.90;;;;;;5051091;28;20506;-53
2022/04/05 03:58:12;;;;;;;13.25;3.42;;;7.10;99.90;;;;;;5050788;28;20037;-52
2022/04/05 04:00:38;;;;;;;9.43;3.05;;;7.10;99.90;;;;;;5033053;28;20053;-51
2022/04/05 04:03:04;;;;;;;9.63;3.63;;;7.10;99.90;;;;;;5050827;28;20040;-52
2022/04/05 04:05:29;;;;;;;7.50;3.90;;;7.10;99.90;;;;;;5051439;28;20461;-54
2022/04/05 04:07:55;;;;;;;9.90;4.30;;;7.10;99.90;;;;;;5050667;28;20041;-51
2022/04/05 04:10:20;;;;;;;11.23;4.10;;;7.20;99.90;;;;;;5051233;28;20481;-53
2022/04/05 04:12:46;;;;;;;9.10;4.10;;;7.20;99.90;;;;;;5051032;28;20041;-53
2022/04/05 04:15:12;;;;;;;12.57;3.63;;;7.20;99.90;;;;;;5050856;28;20037;-54
2022/04/05 04:17:38;;;;;;;12.38;4.57;;;7.20;99.90;;;;;;5050605;28;20069;-52
2022/04/05 04:20:05;;;;;;;10.30;4.25;;;7.20;99.90;;;;;;5016553;28;20480;-53
2022/04/05 04:22:31;;;;;;;8.38;4.10;;;7.20;99.90;;;;;;5050902;28;20048;-51
2022/04/05 04:24:57;;;;;;;8.85;4.10;;;7.20;99.90;;;;;;5050968;28;20048;-53
2022/04/05 04:27:24;;;;;;;15.27;4.82;;;7.20;99.90;;;;;;5032608;28;20033;-53
2022/04/05 04:29:49;;;;;;;8.82;4.00;;;7.20;99.90;;;;;;5049951;28;20063;-53
2022/04/05 04:32:15;;;;;;;9.60;4.38;;;7.20;99.90;;;;;;5050477;28;20041;-53
2022/04/05 04:34:41;;;;;;;10.82;4.18;;;7.20;99.90;;;;;;5051127;28;20067;-52
2022/04/05 04:37:07;;;;;;;9.65;4.15;;;7.20;99.90;;;;;;5032543;28;20060;-54
2022/04/05 04:39:33;;;;;;;8.32;3.90;;;7.20;99.90;;;;;;5050637;28;20037;-55
2022/04/05 04:41:59;;;;;;;10.05;3.90;;;7.20;99.90;;;;;;5050948;28;20436;-51
2022/04/05 04:44:25;;;;;;;10.40;4.35;;;7.20;99.90;;;;;;5050393;28;20036;-56
2022/04/05 04:46:51;;;;;;;11.57;3.70;;;7.20;99.90;;;;;;5050304;28;20033;-50
2022/04/05 04:49:16;;;;;;;9.65;4.15;;;7.20;99.90;;;;;;5050783;28;20480;-54
2022/04/05 04:51:42;;;;;;;9.30;3.83;;;7.20;99.90;;;;;;5050260;28;20037;-53
2022/04/05 04:54:07;;;;;;;10.27;3.53;;;7.20;99.90;;;;;;5053992;28;20530;-50
2022/04/05 04:56:33;;;;;;;10.88;3.78;;;7.20;99.90;;;;;;5054273;28;20461;-53
2022/04/05 04:58:58;;;;;;;7.28;3.45;;;7.20;99.90;;;;;;5036032;28;20037;-51
2022/04/05 05:01:24;;;;;;;10.45;3.72;;;7.20;99.90;;;;;;5054386;28;20044;-53
2022/04/05 05:03:51;;;;;;;7.40;3.63;;;7.20;99.90;;;;;;5054488;28;20469;-52
2022/04/05 05:06:17;;;;;;;9.98;3.50;;;7.20;99.90;;;;;;5054171;28;20041;-53
2022/04/05 05:08:42;;;;;;;8.38;3.40;;;7.20;99.90;;;;;;5053971;28;20413;-53
2022/04/05 05:11:08;;;;;;;12.23;3.17;;;7.20;99.90;;;;;;5054234;28;20124;-50
2022/04/05 05:13:33;;;;;;;9.68;3.15;;;7.20;99.90;;;;;;5054539;28;20124;-53
2022/04/05 05:15:59;;;;;;;13.68;3.35;;;7.20;99.90;;;;;;5053528;28;20465;-53
2022/04/05 05:18:25;;;;;;;7.88;2.70;;;7.20;99.90;;;;;;5054012;28;20049;-50
2022/04/05 05:20:50;;;;;;;6.53;2.60;;;7.20;99.90;;;;;;5054030;28;20048;-49
2022/04/05 05:23:16;;;;;;;10.05;2.67;;;7.20;99.90;;;;;;5053944;28;20488;-53
2022/04/05 05:25:41;;;;;;;7.85;3.00;;;7.20;99.90;;;;;;5054026;28;20036;-53
2022/04/05 05:28:07;;;;;;;8.55;2.53;;;7.20;99.90;;;;;;5053416;28;20052;-52
2022/04/05 05:30:33;;;;;;;7.40;2.63;;;7.20;99.90;;;;;;5053472;28;20048;-53
2022/04/05 05:32:59;;;;;;;12.23;2.95;;;7.10;99.90;;;;;;5053074;28;20037;-52
2022/04/05 05:35:24;;;;;;;5.78;2.30;;;7.10;99.90;;;;;;5052758;28;20524;-52
2022/04/05 05:37:51;;;;;;;9.20;2.33;;;7.10;99.90;;;;;;5053094;28;20032;-52
2022/04/05 05:40:18;;;;;;;7.75;2.30;;;7.10;99.90;;;;;;5053093;28;20051;-52
2022/04/05 05:42:57;;;;;;;6.88;2.00;;;7.10;99.90;;;;;;5053639;28;20037;-49
2022/04/05 05:45:23;;;;;;;7.68;1.95;;;7.20;99.90;;;;;;5053324;28;20549;-52
2022/04/05 05:47:49;;;;;;;5.63;1.75;;;7.10;99.90;;;;;;5052607;28;20485;-53
2022/04/05 05:50:15;;;;;;;3.72;1.70;;;7.20;99.90;;;;;;5038740;28;20083;-52
2022/04/05 05:52:42;;;;;;;4.38;1.50;;;7.20;99.90;;;;;;5040642;28;20500;-52
2022/04/05 05:55:12;;;;;;;5.75;1.50;;;7.10;99.90;;;;;;5044780;28;20030;-53
2022/04/05 05:57:38;;;;;;;3.15;1.40;;;7.10;99.90;;;;;;5041919;28;20037;-54
2022/04/05 06:00:09;;;;;;;4.35;1.30;;;7.10;99.90;;;;;;5052705;28;20098;-51
2022/04/05 06:02:38;;;;;;;3.08;1.17;;;7.10;99.90;;;;;;5041674;28;20041;-55
2022/04/05 06:05:05;;;;;;;3.90;1.17;;;7.10;99.90;;;;;;5051094;28;20118;-54
2022/04/05 06:07:32;;;;;;;4.57;1.25;;;7.10;99.90;;;;;;5044591;28;20037;-51
2022/04/05 06:09:57;;;;;;;2.47;0.77;;;7.10;99.90;;;;;;5052915;28;20121;-52
2022/04/05 06:12:23;;;;;;;5.38;1.00;;;7.10;99.90;;;;;;5052127;28;20115;-49
2022/04/05 06:14:48;;;;;;;4.20;0.85;;;7.10;99.90;;;;;;5050829;28;20324;-52
2022/04/05 06:17:14;;;;;;;4.90;1.23;;;7.10;99.90;;;;;;5051318;28;20041;-53
2022/04/05 06:19:39;;;;;;;3.42;1.25;;;7.10;99.90;;;;;;5052657;28;20041;-55
2022/04/05 06:22:05;;;;;;;3.78;1.10;;;7.10;99.90;;;;;;5052941;28;20040;-52
2022/04/05 06:24:30;;;;;;;4.43;0.93;;;7.10;99.90;;;;;;5051157;28;20067;-52
2022/04/05 06:26:56;;;;;;;0.90;0.77;;;7.10;99.90;;;;;;5044830;28;20042;-52
2022/04/05 06:29:21;;;;;;;5.25;1.10;;;7.10;99.90;;;;;;5044208;28;20041;-53
2022/04/05 06:31:47;;;;;;;3.20;0.90;;;7.10;99.90;;;;;;5045906;28;20037;-52
2022/04/05 06:34:13;;;;;;;4.28;1.05;;;7.20;99.90;;;;;;5046229;28;20033;-52
2022/04/05 06:36:40;;;;;;;3.75;1.00;;;7.20;99.90;;;;;;5022315;28;20029;-52
2022/04/05 06:39:06;;;;;;;4.10;1.00;;;7.20;99.90;;;;;;5036660;28;20477;-53
2022/04/05 06:41:32;;;;;;;2.83;1.20;;;7.20;99.90;;;;;;5039234;28;20053;-53
2022/04/05 06:43:57;;;;;;;2.25;0.80;;;7.30;99.90;;;;;;5040202;28;20034;-51
2022/04/05 06:46:23;;;;;;;3.50;1.10;;;7.30;99.90;;;;;;5042270;28;20393;-50
2022/04/05 06:48:49;;;;;;;2.45;1.00;;;7.30;99.90;;;;;;5020536;28;20596;-50
2022/04/05 06:51:15;;;;;;;3.90;1.20;;;7.30;99.90;;;;;;5045505;28;20114;-52
2022/04/05 06:53:41;;;;;;;4.95;1.30;;;7.40;99.90;;;;;;5037411;28;20517;-53
2022/04/05 06:56:09;;;;;;;5.68;1.20;;;7.40;99.90;;;;;;5038000;28;20044;-55
2022/04/05 06:58:34;;;;;;;7.13;1.50;;;7.40;99.90;;;;;;5038226;28;20576;-52
2022/04/05 07:01:00;;;;;;;4.05;1.52;;;7.40;99.90;;;;;;5034686;28;20299;-49
2022/04/05 07:03:25;;;;;;;3.95;1.40;;;7.50;99.90;;;;;;5041859;28;20041;-54
2022/04/05 07:05:51;;;;;;;3.45;1.52;;;7.50;99.90;;;;;;5036566;28;20079;-55
2022/04/05 07:08:16;;;;;;;3.80;1.30;;;7.50;99.90;;;;;;5035616;28;20042;-51
2022/04/05 07:10:42;;;;;;;4.57;1.55;;;7.50;99.90;;;;;;5045227;28;20033;-53
2022/04/05 07:13:08;;;;;;;3.17;1.20;;;7.40;99.90;;;;;;5042196;28;20492;-52
2022/04/05 07:15:34;;;;;;;3.70;1.20;;;7.50;99.90;;;;;;5040769;28;20152;-50
2022/04/05 07:18:00;;;;;;;4.35;1.45;;;7.40;99.90;;;;;;5028988;28;20041;-51
2022/04/05 07:20:25;;;;;;;3.35;1.50;;;7.40;99.90;;;;;;5038947;28;20052;-51
2022/04/05 07:22:51;;;;;;;6.88;1.40;;;7.50;99.90;;;;;;5048053;28;20086;-52
2022/04/05 07:25:21;;;;;;;5.97;1.40;;;7.50;99.90;;;;;;5045908;28;20208;-53
2022/04/05 07:27:51;;;;;;;2.20;1.20;;;7.50;99.90;;;;;;5042035;28;20392;-52
2022/04/05 07:30:17;;;;;;;4.38;1.33;;;7.50;99.90;;;;;;5037560;28;20041;-50
2022/04/05 07:32:45;;;;;;;4.30;1.27;;;7.60;99.90;;;;;;5038410;28;20124;-50
2022/04/05 07:35:12;;;;;;;2.90;1.17;;;7.50;99.90;;;;;;5046045;28;20048;-55
2022/04/05 07:37:37;;;;;;;2.22;0.90;;;7.50;99.90;;;;;;5040394;28;20072;-50
2022/04/05 07:40:05;;;;;;;2.45;1.02;;;7.50;99.90;;;;;;5041258;28;20084;-56
2022/04/05 07:42:31;;;;;;;1.77;1.10;;;7.50;99.90;;;;;;5040491;28;20400;-50
2022/04/05 07:44:57;;;;;;;3.22;1.20;;;7.60;99.90;;;;;;5037557;28;20068;-53
2022/04/05 07:47:23;;;;;;;2.25;1.58;;;7.60;99.90;;;;;;5011090;28;20037;-51
2022/04/05 07:49:48;;;;;;;2.20;1.20;;;7.60;99.90;;;;;;5042324;28;20040;-55
2022/04/05 07:52:14;;;;;;;1.95;1.35;;;7.70;99.90;;;;;;5034204;28;20033;-53
2022/04/05 07:54:41;;;;;;;3.72;1.33;;;7.60;99.90;;;;;;5044526;28;20036;-52
2022/04/05 07:57:08;;;;;;;3.50;1.25;;;7.70;99.90;;;;;;5035275;28;20092;-56
2022/04/05 07:59:34;;;;;;;3.40;1.30;;;7.70;99.90;;;;;;5010171;28;20060;-56
2022/04/05 08:02:00;;;;;;;2.40;1.00;;;7.70;99.90;;;;;;5044141;28;20489;-53
2022/04/05 08:04:25;;;;;;;1.88;0.90;;;7.70;99.90;;;;;;5047585;28;20036;-53
2022/04/05 08:06:51;;;;;;;2.63;0.98;;;7.80;99.90;;;;;;5046996;28;20037;-54
2022/04/05 08:09:16;;;;;;;1.77;0.70;;;7.80;99.90;;;;;;5040316;28;20504;-52
2022/04/05 08:11:42;;;;;;;1.73;0.98;;;7.80;99.90;;;;;;5038388;28;20094;-56
2022/04/05 08:14:07;;;;;;;1.23;0.80;;;7.80;99.90;;;;;;5046362;28;20083;-50
2022/04/05 08:16:34;;;;;;;1.83;0.80;;;7.90;99.90;;;;;;5047668;28;20040;-55
2022/04/05 08:18:59;;;;;;;3.70;1.20;;;7.90;99.90;;;;;;5030180;28;20562;-53
2022/04/05 08:21:25;;;;;;;1.60;1.00;;;7.90;99.90;;;;;;5047029;28;20044;-54
2022/04/05 08:23:52;;;;;;;2.85;1.00;;;7.90;99.90;;;;;;5047074;28;20505;-52
2022/04/05 08:26:18;;;;;;;2.40;0.88;;;8.00;99.90;;;;;;5029138;28;20099;-53
2022/04/05 08:28:44;;;;;;;2.15;1.08;;;8.00;99.90;;;;;;5050543;28;20039;-53
2022/04/05 08:31:10;;;;;;;2.40;1.10;;;8.00;99.90;;;;;;5051105;28;20033;-52
2022/04/05 08:33:36;;;;;;;2.38;1.30;;;8.00;99.90;;;;;;5049207;28;20041;-55
2022/04/05 08:36:01;;;;;;;2.17;1.50;;;8.00;99.90;;;;;;5051067;28;20033;-56
2022/04/05 08:38:28;;;;;;;2.22;1.38;;;8.10;99.90;;;;;;5033465;28;20051;-53
2022/04/05 08:40:55;;;;;;;1.75;1.35;;;8.10;99.90;;;;;;5050869;28;20059;-53
2022/04/05 08:43:20;;;;;;;2.55;1.30;;;8.10;99.90;;;;;;5051317;28;20058;-53
2022/04/05 08:45:52;;;;;;;2.72;1.60;;;8.20;99.90;;;;;;5051267;28;20033;-56
2022/04/05 08:48:26;;;;;;;2.50;1.60;;;8.20;99.90;;;;;;5048289;28;20044;-55
2022/04/05 08:50:52;;;;;;;3.13;1.80;;;8.20;99.90;;;;;;5049600;28;20496;-54
2022/04/05 08:53:19;;;;;;;2.10;1.65;;;8.20;99.90;;;;;;5038031;28;20048;-53
2022/04/05 08:55:45;;;;;;;3.25;1.80;;;8.20;99.90;;;;;;5027560;28;20183;-53
2022/04/05 08:58:12;;;;;;;3.08;2.00;;;8.20;99.90;;;;;;5050286;28;20148;-53
2022/04/05 09:00:38;;;;;;;4.60;2.22;;;8.30;99.90;;;;;;5050726;28;20080;-56
2022/04/05 09:03:07;;;;;;;4.20;2.28;;;8.30;99.90;;;;;;5050539;28;20084;-55
2022/04/05 09:05:34;;;;;;;3.35;2.33;;;8.30;99.90;;;;;;5049624;28;20041;-53
2022/04/05 09:08:19;;;;;;;3.58;2.42;;;8.40;99.90;;;;;;5071027;23;20033;-54
2022/04/05 09:11:03;;;;;;;4.35;2.50;;;8.40;99.90;;;;;;5042758;28;20045;-54
2022/04/05 09:13:29;;;;;;;5.25;3.50;;;8.40;99.90;;;;;;5037494;28;20044;-53
2022/04/05 09:15:58;;;;;;;7.20;3.90;;;8.40;99.90;;;;;;5044390;28;20036;-55
2022/04/05 09:18:27;;;;;;;4.13;2.70;;;8.50;99.90;;;;;;5049685;28;20040;-55
2022/04/05 09:20:54;;;;;;;4.13;2.78;;;8.50;99.90;;;;;;5039648;28;20060;-54
2022/04/05 09:23:28;;;;;;;5.85;4.00;;;8.50;99.90;;;;;;5050009;28;20500;-54
2022/04/05 09:26:06;;;;;;;4.75;3.35;;;8.50;99.90;;;;;;5044523;28;20456;-54
2022/04/05 09:28:35;;;;;;;6.05;3.30;;;8.60;99.90;;;;;;5046182;28;20041;-54
2022/04/05 09:31:03;;;;;;;5.13;2.97;;;8.60;99.90;;;;;;5047628;28;20032;-54
2022/04/05 09:33:31;;;;;;;6.13;3.30;;;8.60;99.90;;;;;;5039891;28;20036;-54
2022/04/05 09:36:07;;;;;;;7.40;3.97;;;8.60;99.90;;;;;;5047664;28;20029;-53
2022/04/05 09:38:33;;;;;;;5.95;3.72;;;8.60;99.90;;;;;;5045159;28;20037;-52
2022/04/05 09:41:28;;;;;;;8.18;4.40;;;8.90;99.90;;;;;;5050409;28;20113;-54
2022/04/05 09:43:59;;;;;;;8.98;4.90;;;8.60;99.90;;;;;;5029280;28;20040;-54
2022/04/05 09:46:26;;;;;;;7.93;4.85;;;8.60;99.90;;;;;;5043387;28;20049;-54
2022/04/05 09:49:06;;;;;;;9.25;5.07;;;8.70;99.90;;;;;;5040422;28;20037;-55
2022/04/05 09:51:36;;;;;;;8.30;4.93;;;8.70;99.90;;;;;;5040541;28;20033;-54
2022/04/05 09:54:03;;;;;;;9.43;5.90;;;8.70;99.90;;;;;;5035576;28;20041;-55
2022/04/05 09:56:34;;;;;;;10.45;5.88;;;8.70;99.90;;;;;;5023187;28;20060;-54
2022/04/05 09:59:12;;;;;;;11.85;6.50;;;8.80;99.90;;;;;;5045353;28;20037;-54
2022/04/05 10:01:38;;;;;;;10.45;6.15;;;8.80;99.90;;;;;;5041552;28;20060;-54
2022/04/05 10:04:09;;;;;;;10.63;6.20;;;8.90;99.90;;;;;;5041823;28;20025;-55
2022/04/05 10:06:39;;;;;;;10.77;6.57;;;8.90;99.90;;;;;;5045064;28;20353;-54
2022/04/05 10:09:06;;;;;;;14.05;6.97;;;8.90;99.90;;;;;;5043900;28;20092;-55
2022/04/05 10:11:35;;;;;;;12.57;7.72;;;9.00;99.90;;;;;;5044298;28;20033;-54
2022/04/05 10:14:01;;;;;;;14.75;8.57;;;9.00;99.90;;;;;;5047891;28;20039;-54
2022/04/05 10:16:28;;;;;;;15.10;8.77;;;9.00;99.90;;;;;;5048886;28;20036;-53
2022/04/05 10:19:10;;;;;;;14.98;8.55;;;9.10;99.90;;;;;;5043694;28;20037;-54
2022/04/05 10:21:37;;;;;;;14.55;8.05;;;9.20;99.90;;;;;;5046497;28;20045;-55
2022/04/05 10:24:05;;;;;;;13.50;7.28;;;9.40;99.90;;;;;;5037502;28;20083;-54
2022/04/05 10:26:37;;;;;;;10.82;7.25;;;9.50;99.90;;;;;;5036868;28;20036;-54
2022/04/05 10:29:11;;;;;;;12.35;7.68;;;9.60;99.90;;;;;;5035323;28;20037;-54
2022/04/05 10:31:43;;;;;;;9.02;6.35;;;9.70;99.90;;;;;;5038344;28;20041;-54
2022/04/05 10:34:34;;;;;;;8.73;5.70;;;9.70;99.90;;;;;;5023455;28;20087;-53
2022/04/05 10:37:17;;;;;;;9.27;4.95;;;9.80;99.90;;;;;;5041339;28;20037;-55
2022/04/05 10:40:03;;;;;;;8.00;5.32;;;9.80;99.90;;;;;;5037474;28;20049;-55
2022/04/05 10:42:40;;;;;;;7.03;4.65;;;9.80;99.90;;;;;;5040484;28;20036;-55
2022/04/05 10:45:11;;;;;;;7.78;5.00;;;9.80;99.90;;;;;;5041913;28;20059;-55
2022/04/05 10:47:59;;;;;;;8.68;5.18;;;9.80;99.90;;;;;;5036268;28;20488;-55
2022/04/05 10:50:26;;;;;;;8.20;4.60;;;9.80;99.90;;;;;;5001794;28;20037;-55
2022/04/05 10:53:11;;;;;;;8.43;5.28;;;9.80;99.90;;;;;;5040393;28;21806;-55
2022/04/05 10:56:11;;;;;;;9.55;4.95;;;9.80;99.90;;;;;;5034412;28;20170;-55
2022/04/05 10:58:38;;;;;;;7.55;4.57;;;9.80;99.90;;;;;;5018280;28;20046;-54
2022/04/05 11:01:43;;;;;;;7.68;4.45;;;9.90;99.90;;;;;;5029434;28;20060;-55
2022/04/05 11:04:12;;;;;;;10.32;4.80;;;10.00;99.90;;;;;;5030369;28;20060;-55
2022/04/05 11:07:02;;;;;;;9.23;5.10;;;10.10;99.90;;;;;;5033460;28;20386;-55
2022/04/05 11:09:40;;;;;;;9.65;5.05;;;10.20;99.90;;;;;;5039592;28;20477;-55
2022/04/05 11:12:15;;;;;;;8.40;5.28;;;10.20;99.90;;;;;;5039363;28;20060;-55
2022/04/05 11:14:41;;;;;;;10.55;4.90;;;10.30;99.90;;;;;;5034668;28;20049;-55
2022/04/05 11:17:09;;;;;;;8.02;4.80;;;10.30;99.90;;;;;;5043000;28;20033;-55
2022/04/05 11:19:37;;;;;;;9.50;4.80;;;10.30;99.90;;;;;;5048425;28;20530;-55
2022/04/05 11:22:35;;;;;;;12.00;5.70;;;10.30;99.90;;;;;;5046928;28;20038;-55
2022/04/05 11:25:05;;;;;;;10.50;5.97;;;10.30;99.90;;;;;;5044754;28;20094;-55
2022/04/05 11:27:35;;;;;;;9.23;5.63;;;10.30;99.90;;;;;;5047113;28;20116;-55
2022/04/05 11:30:23;;;;;;;16.90;7.18;;;10.30;99.90;;;;;;5043936;28;20042;-55
2022/04/05 11:33:09;;;;;;;11.88;6.05;;;10.40;99.90;;;;;;5032678;28;20326;-55
2022/04/05 11:35:45;;;;;;;10.88;5.15;;;10.40;99.90;;;;;;5017319;28;20060;-54
2022/04/05 11:38:19;;;;;;;11.10;5.68;;;10.40;99.90;;;;;;5037312;28;20041;-55
2022/04/05 11:40:46;;;;;;;11.45;5.32;;;10.40;99.90;;;;;;5041309;28;20041;-55
2022/04/05 11:43:30;;;;;;;13.02;6.00;;;10.40;99.90;;;;;;5044492;28;20519;-55
2022/04/05 11:45:58;;;;;;;9.43;5.70;;;10.50;99.90;;;;;;5041211;28;20601;-55
2022/04/05 11:48:29;;;;;;;8.82;4.90;;;10.70;99.90;;;;;;5047057;28;20048;-55
2022/04/05 11:50:58;;;;;;;11.40;5.47;;;10.70;99.90;;;;;;5048384;28;20044;-53
2022/04/05 11:53:31;;;;;;;10.43;5.28;;;10.70;99.90;;;;;;5041244;28;20060;-55
2022/04/05 11:56:12;;;;;;;14.18;5.95;;;10.70;99.90;;;;;;5029566;28;20598;-55
2022/04/05 11:58:41;;;;;;;8.40;5.13;;;10.60;99.90;;;;;;5029627;28;20033;-54
2022/04/05 12:01:08;;;;;;;13.90;6.28;;;10.60;99.90;;;;;;5034504;28;20072;-55
2022/04/05 12:03:47;;;;;;;10.32;5.32;;;10.60;99.90;;;;;;5034310;28;20118;-55
2022/04/05 12:06:17;;;;;;;13.70;5.78;;;10.50;99.90;;;;;;5034306;28;20124;-55
2022/04/05 12:08:43;;;;;;;13.25;6.03;;;10.50;99.90;;;;;;5031929;28;20041;-55
2022/04/05 12:11:09;;;;;;;14.10;6.00;;;10.50;99.90;;;;;;5023792;28;20040;-54
2022/04/05 12:13:35;;;;;;;10.95;5.07;;;10.50;99.90;;;;;;5043650;28;20052;-55
2022/04/05 12:16:05;;;;;;;11.20;5.55;;;10.50;99.90;;;;;;5044533;28;20041;-54
2022/04/05 12:18:31;;;;;;;11.73;5.78;;;10.50;99.90;;;;;;5044669;28;20051;-55
2022/04/05 12:21:03;;;;;;;10.98;4.20;;;10.60;99.90;;;;;;5011338;28;20662;-55
2022/04/05 12:23:34;;;;;;;10.57;4.63;;;10.60;99.90;;;;;;5041087;28;20076;-55
2022/04/05 12:26:10;;;;;;;11.02;4.70;;;10.60;99.90;;;;;;5034131;28;20362;-55
2022/04/05 12:28:44;;;;;;;12.80;5.88;;;10.60;99.90;;;;;;5033415;28;20044;-55
2022/04/05 12:31:11;;;;;;;12.80;5.07;;;10.50;99.90;;;;;;5035045;28;20515;-55
2022/04/05 12:33:39;;;;;;;15.50;6.32;;;10.50;99.90;;;;;;5002784;28;20060;-55
2022/04/05 12:36:05;;;;;;;16.42;6.97;;;10.50;99.90;;;;;;5036579;28;20379;-55
2022/04/05 12:38:31;;;;;;;14.18;6.18;;;10.50;99.90;;;;;;5034052;28;20083;-55
2022/04/05 12:40:57;;;;;;;16.73;7.50;;;10.40;99.90;;;;;;5033526;28;20453;-55
2022/04/05 12:43:23;;;;;;;20.25;7.07;;;10.40;99.90;;;;;;5041355;28;20223;-54
2022/04/05 12:45:50;;;;;;;15.52;6.60;;;10.40;99.90;;;;;;5038646;28;20030;-55
2022/04/05 12:48:17;;;;;;;22.08;7.38;;;10.40;99.90;;;;;;5039817;28;20093;-55
2022/04/05 12:50:50;;;;;;;20.20;8.57;;;10.40;99.90;;;;;;5036061;28;20348;-55
2022/04/05 12:53:25;;;;;;;19.90;9.18;;;10.30;99.90;;;;;;5040057;28;20044;-55
2022/04/05 12:55:59;;;;;;;15.23;7.07;;;10.40;99.90;;;;;;5035748;28;20564;-55
2022/04/05 12:58:41;;;;;;;16.83;8.07;;;10.50;99.90;;;;;;5059551;22;20053;-50